Home > Products > Valid Products > TAF

000
FTUS42 KTBW 280100 AAA
TAFPIE
TAF AMD
KPIE 280113Z 2801/2824 34013KT P6SM SKC
     FM280600 01015G22KT P6SM SKC
     FM281600 01008KT P6SM SKC=



000
FTUS42 KTBW 272300
TAFTPA
TAF
KTPA 272332Z 2800/2824 34008KT P6SM SKC=



000
FTUS42 KTBW 272300
TAFFMY
TAF
KFMY 272332Z 2800/2824 01010KT P6SM SKC=



000
FTUS42 KTBW 272300
TAFSRQ
TAF
KSRQ 272332Z 2800/2824 34009KT P6SM SKC=



000
FTUS42 KTBW 272300
TAFPIE
TAF
KPIE 272332Z 2800/2824 33016G26KT P6SM SKC
     FM280600 01015G22KT P6SM SKC
     FM281600 01008KT P6SM SKC=



000
FTUS42 KTBW 272300
TAFRSW
TAF
KRSW 272332Z 2800/2824 01008KT P6SM SKC=



000
FTUS42 KTBW 272000 AAA
TAFTPA
TAF AMD
KTPA 272058Z 2721/2818 33015G20KT P6SM SKC
     FM280000 36007KT P6SM SKC=



000
FTUS42 KTBW 271700
TAFPIE
TAF
KPIE 271720Z 2718/2818 33014G20KT P6SM FEW040
     FM280000 36012KT P6SM SKC=



000
FTUS42 KTBW 271700
TAFTPA
TAF
KTPA 271720Z 2718/2818 26007KT P6SM FEW040
     FM271900 29009G18KT P6SM SKC
     FM280000 36007KT P6SM SKC=



000
FTUS42 KTBW 271700
TAFSRQ
TAF
KSRQ 271720Z 2718/2818 26007KT P6SM SKC
     FM271900 33014G20KT P6SM FEW040
     FM280000 36009KT P6SM SKC=



000
FTUS42 KTBW 271700
TAFRSW
TAF
KRSW 271720Z 2718/2818 35011KT P6SM SKC
     FM280000 01008KT P6SM SKC=



000
FTUS42 KTBW 271700
TAFFMY
TAF
KFMY 271720Z 2718/2818 36012KT P6SM SKC
     FM280000 01010KT P6SM SKC=



000
FTUS42 KTBW 271400 AAA
TAFTPA
TAF AMD
KTPA 271459Z 2715/2812 20006KT P6SM FEW250
     FM271600 32011G18KT P6SM FEW030 FEW250
     FM280000 36007KT P6SM SKC=



000
FTUS42 KTBW 271100 RRA
TAFSRQ
TAF
KSRQ 271141Z 2712/2812 VRB04KT P6SM SKC
     FM271400 33008KT P6SM FEW025 FEW250
     FM271700 33014G20KT P6SM FEW030 FEW250
     FM280000 36009KT P6SM SKC=



000
FTUS42 KTBW 271100 RRA
TAFRSW
TAF
KRSW 271141Z 2712/2812 36006KT P6SM FEW250
     FM271400 36009KT P6SM FEW250
     FM271700 35011KT P6SM FEW250
     FM280000 01008KT P6SM SKC=



000
FTUS42 KTBW 271100 RRA
TAFPIE
TAF
KPIE 271141Z 2712/2812 VRB04KT P6SM SKC
     FM271400 33008KT P6SM FEW025 FEW250
     FM271700 33014G20KT P6SM FEW030 FEW250
     FM280000 36012KT P6SM SKC=



000
FTUS42 KTBW 271100 RRA
TAFTPA
TAF
KTPA 271141Z 2712/2812 VRB03KT P6SM SKC
     FM271400 33007KT P6SM FEW025 FEW250
     FM271700 32011G18KT P6SM FEW030 FEW250
     FM280000 36007KT P6SM SKC=



000
FTUS42 KTBW 271100 RRA
TAFFMY
TAF
KFMY 271141Z 2712/2812 35008KT P6SM FEW250
     FM271400 36009KT P6SM FEW250
     FM271700 35012KT P6SM FEW250
     FM280000 36010KT P6SM SKC=



000
FTUS42 KTBW 270800 AAA
TAFTPA
TAF AMD
KTPA 270850Z 2709/2806 VRB03KT P6SM SKC
     FM271400 33007KT P6SM FEW250
     FM271700 32011G18KT P6SM FEW030 FEW250
     FM280000 34007KT P6SM SKC=



000
FTUS42 KTBW 270500 RRA
TAFFMY
TAF
KFMY 270541Z 2706/2806 VRB04KT P6SM FEW250
     FM271400 36009KT P6SM FEW250
     FM271700 35013KT P6SM FEW250
     FM280000 36010KT P6SM SKC=



000
FTUS42 KTBW 270500 RRA
TAFRSW
TAF
KRSW 270541Z 2706/2806 VRB04KT P6SM FEW250
     FM271400 36009KT P6SM FEW250
     FM271700 35011KT P6SM FEW250
     FM280000 36008KT P6SM SKC=



000
FTUS42 KTBW 270500 RRA
TAFPIE
TAF
KPIE 270541Z 2706/2806 VRB04KT P6SM FEW250
     FM271400 33008KT P6SM FEW250
     FM271700 33014G20KT P6SM FEW030 FEW250
     FM280000 35012KT P6SM SKC=



000
FTUS42 KTBW 270500 RRA
TAFTPA
TAF
KTPA 270541Z 2706/2806 00000KT P6SM FEW250
     FM271400 33007KT P6SM FEW250
     FM271700 32011G18KT P6SM FEW030 FEW250
     FM280000 34007KT P6SM SKC=



000
FTUS42 KTBW 270500 RRA
TAFSRQ
TAF
KSRQ 270541Z 2706/2806 VRB04KT P6SM FEW250
     FM271400 33008KT P6SM FEW250
     FM271700 33014G20KT P6SM FEW250
     FM280000 35009KT P6SM SKC=



000
FTUS42 KTBW 270200 AAA
TAFTPA
TAF AMD
KTPA 270251Z 2703/2724 36003KT P6SM SKC
     FM271600 32012G18KT P6SM FEW250=



000
FTUS42 KTBW 262300
TAFTPA
TAF
KTPA 262340Z 2700/2724 32006KT P6SM FEW120
     FM270200 35003KT P6SM SKC
     FM271600 32012KT P6SM FEW250=



000
FTUS42 KTBW 262300
TAFSRQ
TAF
KSRQ 262340Z 2700/2724 35003KT P6SM FEW120
     FM271600 34012G18KT P6SM FEW250=



000
FTUS42 KTBW 262300
TAFRSW
TAF
KRSW 262340Z 2700/2724 01006KT P6SM FEW120
     FM271600 36012KT P6SM FEW250=



000
FTUS42 KTBW 262300
TAFFMY
TAF
KFMY 262340Z 2700/2724 36006KT P6SM FEW120
     FM271600 34012KT P6SM FEW250=



000
FTUS42 KTBW 262300
TAFPIE
TAF
KPIE 262340Z 2700/2724 33009KT P6SM FEW120
     FM270200 34006KT P6SM SKC
     FM271600 32012G18KT P6SM FEW250=



000
FTUS42 KTBW 262000 AAA
TAFTPA
TAF AMD
KTPA 262059Z 2621/2718 33010KT P6SM FEW120
     FM270200 34003KT P6SM SKC
     FM271600 32010KT P6SM FEW250=



000
FTUS42 KTBW 261700 RRA
TAFPIE
TAF
KPIE 261741Z 2618/2718 32012KT P6SM FEW020 BKN120
     FM262000 33012KT P6SM FEW120 SCT250
     FM270200 34006KT P6SM SKC
     FM271600 32012KT P6SM FEW250=



000
FTUS42 KTBW 261700 RRA
TAFFMY
TAF
KFMY 261741Z 2618/2718 34012KT P6SM BKN020 OVC100
      TEMPO 2618/2621 SCT020 BKN100
     FM262100 34012KT P6SM FEW025 SCT100 SCT250
     FM270000 35006KT P6SM SKC
     FM271600 01012KT P6SM SKC=



000
FTUS42 KTBW 261700 RRA
TAFSRQ
TAF
KSRQ 261741Z 2618/2718 33011KT P6SM FEW020 BKN120
     FM262000 34012KT P6SM FEW120 SCT250
     FM270000 35005KT P6SM SKC
     FM271600 33010KT P6SM FEW250=



000
FTUS42 KTBW 261700 RRA
TAFRSW
TAF
KRSW 261741Z 2618/2718 34012G18KT P6SM BKN020 OVC100
      TEMPO 2618/2621 SCT020 BKN100
     FM262100 35012KT P6SM FEW025 SCT100 SCT250
     FM270000 35006KT P6SM SKC
     FM271600 01012KT P6SM SKC=



000
FTUS42 KTBW 261700 RRA
TAFTPA
TAF
KTPA 261741Z 2618/2718 32011KT P6SM FEW020 BKN120
     FM262000 34007KT P6SM FEW120 SCT250
     FM270200 34003KT P6SM SKC
     FM271600 32010KT P6SM FEW250=



000
FTUS42 KTBW 261500 AAB
TAFTPA
TAF AMD
KTPA 261519Z 2615/2712 34012KT P6SM VCSH SCT015 SCT040 BKN100
     FM261800 33013G20KT P6SM FEW040 SCT250
     FM262300 33006KT P6SM FEW250=



000
FTUS42 KTBW 261300 AAA
TAFRSW
TAF AMD
KRSW 261304Z 2613/2712 36010KT P6SM -RA SCT006 BKN025 OVC050
      TEMPO 2613/2615 BKN010
     FM261500 35013G22KT P6SM VCSH SCT015 OVC035
     FM261900 35012G20KT P6SM FEW040 SCT250
     FM262300 36008KT P6SM FEW250
     FM270500 01005KT P6SM FEW250=



000
FTUS42 KTBW 261300 AAA
TAFFMY
TAF AMD
KFMY 261303Z 2613/2712 36010KT P6SM -RA FEW015 BKN035 OVC050
      TEMPO 2613/2615 SCT008 BKN015
     FM261500 35013G22KT P6SM VCSH SCT015 OVC035
     FM261900 35012G20KT P6SM FEW040 SCT250
     FM262300 36008KT P6SM FEW250
     FM270500 01005KT P6SM FEW250=



000
FTUS42 KTBW 261200 AAA
TAFSRQ
TAF AMD
KSRQ 261258Z 2613/2712 35012KT P6SM -RA BKN015 OVC035
      TEMPO 2613/2615 BKN008
     FM261500 34016G26KT P6SM VCSH SCT015 BKN035
     FM261800 33015G25KT P6SM FEW040 SCT250
     FM262300 35008KT P6SM FEW250=



000
FTUS42 KTBW 261200 AAA
TAFPIE
TAF AMD
KPIE 261256Z 2613/2712 34012G18KT P6SM -RA BKN008 OVC035
      TEMPO 2613/2615 SCT008 BKN015
     FM261500 34017G27KT P6SM VCSH SCT015 BKN035
     FM261800 33016G25KT P6SM FEW040 SCT250
     FM262300 34008KT P6SM FEW250=



000
FTUS42 KTBW 261200 AAA
TAFTPA
TAF AMD
KTPA 261253Z 2613/2712 33010KT P6SM -RA BKN008 OVC035
      TEMPO 2613/2615 SCT008 BKN015
     FM261500 34013G20KT P6SM VCSH SCT015 BKN035
     FM261800 33013G20KT P6SM FEW040 SCT250
     FM262300 33006KT P6SM FEW250=



000
FTUS42 KTBW 261100
TAFFMY
TAF
KFMY 261127Z 2612/2712 31015G25KT 6SM -RA SCT006 OVC011
      TEMPO 2612/2613 BKN006
     FM261400 35013G22KT P6SM VCSH SCT015 OVC035
     FM261900 35012G20KT P6SM FEW040 SCT250
     FM262300 36008KT P6SM FEW250
     FM270500 01005KT P6SM FEW250=



000
FTUS42 KTBW 261100
TAFRSW
TAF
KRSW 261127Z 2612/2712 33013G25KT 6SM -RA SCT006 OVC011
      TEMPO 2612/2613 BKN006
     FM261400 35013G22KT P6SM VCSH SCT015 OVC035
     FM261900 35012G20KT P6SM FEW040 SCT250
     FM262300 36008KT P6SM FEW250
     FM270500 01005KT P6SM FEW250=



000
FTUS42 KTBW 261100
TAFSRQ
TAF
KSRQ 261127Z 2612/2712 34015G25KT P6SM VCSH SCT014 BKN040 OVC110
     FM261400 34016G26KT P6SM VCSH SCT015 BKN035
     FM261800 33015G25KT P6SM FEW040 SCT250
     FM262300 35008KT P6SM FEW250=



000
FTUS42 KTBW 261100
TAFPIE
TAF
KPIE 261127Z 2612/2712 35015G25KT P6SM -RA SCT012 BKN050 OVC110
     FM261400 34017G27KT P6SM VCSH SCT015 BKN035
     FM261800 33016G25KT P6SM FEW040 SCT250
     FM262300 34008KT P6SM FEW250=



000
FTUS42 KTBW 261100
TAFTPA
TAF
KTPA 261127Z 2612/2712 35014G22KT P6SM -RA SCT012 BKN050 OVC110
     FM261400 34013G20KT P6SM VCSH SCT015 BKN035
     FM261800 33013G20KT P6SM FEW040 SCT250
     FM262300 33006KT P6SM FEW250=



000
FTUS42 KTBW 260900 AAA
TAFSRQ
TAF AMD
KSRQ 260912Z 2609/2706 33016G25KT P6SM -RA SCT009 OVC015
      TEMPO 2609/2611 BKN009
     FM261400 34015G23KT P6SM VCSH SCT015 BKN050
     FM261800 32012G20KT P6SM FEW020 SCT150
     FM262200 34006KT P6SM FEW250=



000
FTUS42 KTBW 260900 AAB
TAFPIE
TAF AMD
KPIE 260909Z 2609/2706 32018G26KT P6SM -RA SCT009 OVC018
      TEMPO 2609/2611 BKN009
     FM261500 33017G24KT P6SM VCSH SCT015 BKN050
     FM261800 32012G20KT P6SM FEW020 SCT150
     FM262300 34005KT P6SM FEW250=



000
FTUS42 KTBW 260900 AAB
TAFTPA
TAF AMD
KTPA 260906Z 2609/2706 32014G22KT P6SM -RA SCT008 OVC015
      TEMPO 2609/2611 BKN008
     FM261500 33015G24KT P6SM VCSH SCT015 BKN050
     FM261800 32012G20KT P6SM FEW020 SCT150
     FM262300 34005KT P6SM FEW250=



000
FTUS42 KTBW 260700 AAA
TAFTPA
TAF AMD
KTPA 260714Z 2607/2706 30012G18KT 6SM -RA BR SCT006 OVC015
      TEMPO 2607/2608 5SM -RA BR BKN006
     FM260800 32014G22KT P6SM VCSH FEW005 OVC025
     FM261200 34015G25KT P6SM VCSH SCT015 BKN050
     FM261800 32012G20KT P6SM FEW020 SCT150
     FM262300 34005KT P6SM FEW250=



000
FTUS42 KTBW 260700 AAA
TAFPIE
TAF AMD
KPIE 260712Z 2607/2706 32017KT P6SM -RA SCT007 OVC020
      TEMPO 2607/2608 5SM -RA BR BKN007
     FM260800 32016G25KT P6SM VCSH FEW005 OVC025
     FM261200 34017G25KT P6SM VCSH SCT015 BKN050
     FM261800 32012G20KT P6SM FEW020 SCT150
     FM262300 34005KT P6SM FEW250=



000
FTUS42 KTBW 260500
TAFTPA
TAF
KTPA 260540Z 2606/2706 24007KT P6SM -RA SCT005 OVC140
      TEMPO 2606/2608 3SM -RA BR BKN004
     FM260800 32014G22KT P6SM VCSH FEW005 OVC025
     FM261200 34015G25KT P6SM VCSH SCT015 BKN050
     FM261800 32012G20KT P6SM FEW020 SCT150
     FM262300 34005KT P6SM FEW250=



000
FTUS42 KTBW 260500
TAFPIE
TAF
KPIE 260540Z 2606/2706 22007KT P6SM -RA SCT005 OVC140
      TEMPO 2606/2608 3SM -RA BR BKN004
     FM260800 32016G25KT P6SM VCSH FEW005 OVC025
     FM261200 34017G25KT P6SM VCSH SCT015 BKN050
     FM261800 32012G20KT P6SM FEW020 SCT150
     FM262300 34005KT P6SM FEW250=



000
FTUS42 KTBW 260500
TAFRSW
TAF
KRSW 260540Z 2606/2706 18010KT 6SM -RA VCTS SCT030CB OVC050
      TEMPO 2606/2609 VRB12G20KT 2SM +TSRA SCT015CB OVC030
     FM261100 33014G20KT P6SM VCSH SCT010 BKN025
     FM261300 34016G24KT P6SM VCSH SCT015 BKN025
     FM261600 35013G22KT P6SM SCT025 BKN040
     FM262000 35012KT P6SM SCT040 BKN250
     FM262300 36007KT P6SM FEW250=



000
FTUS42 KTBW 260500
TAFSRQ
TAF
KSRQ 260540Z 2606/2706 20007KT P6SM -RA SCT005 OVC140
      TEMPO 2606/2609 BKN004
     FM260900 32016G25KT P6SM VCSH FEW005 OVC025
     FM261400 34017G25KT P6SM VCSH SCT015 BKN050
     FM261800 32012G20KT P6SM FEW020 SCT150
     FM262200 34006KT P6SM FEW250=



000
FTUS42 KTBW 260500
TAFFMY
TAF
KFMY 260540Z 2606/2706 19008KT 5SM -RA VCTS SCT030CB OVC050
      TEMPO 2606/2608 VRB12G20KT 2SM +TSRA SCT015CB OVC030
     FM261000 33014G20KT P6SM VCSH SCT010 BKN025
     FM261200 34016G24KT P6SM VCSH SCT015 BKN025
     FM261600 35013G22KT P6SM SCT025 BKN040
     FM262000 35012KT P6SM SCT040 BKN250
     FM262300 36007KT P6SM FEW250=



000
FTUS42 KTBW 260500 AAA
TAFFMY
TAF AMD
KFMY 260525Z 2605/2624 19010KT P6SM VCSH SCT030 BKN060
      TEMPO 2605/2608 VRB12G20KT 2SM +TSRA SCT015CB BKN030
     FM260800 24011G18KT 4SM -RA BR BKN007 OVC020
     FM261200 34015G24KT 6SM -RA BR SCT007 BKN015 OVC030
     FM261800 36011G18KT P6SM FEW020 BKN250=



000
FTUS42 KTBW 260400 AAB
TAFSRQ
TAF AMD
KSRQ 260405Z 2604/2624 19011KT 6SM -RA BR SCT007 BKN070 OVC100
      TEMPO 2604/2605 BKN007
     FM260700 24011G18KT 5SM -RA BR BKN007 OVC020
     FM260900 30017G27KT 6SM -RA BR SCT007 BKN015 OVC030
     FM261300 34015G25KT P6SM -RA SCT020 OVC040
     FM262000 34011G18KT P6SM FEW020 BKN250=



000
FTUS42 KTBW 260400 AAA
TAFPIE
TAF AMD
KPIE 260405Z 2604/2624 17010KT P6SM -RA FEW025 SCT050 BKN100
     FM260600 26011KT 5SM -RA BR BKN007 OVC020
     FM260900 32017G27KT 6SM -RA BR SCT007 BKN015 OVC030
     FM261300 34015G25KT P6SM -RA SCT020 OVC040
     FM261700 34011G20KT P6SM FEW020 BKN250=



000
FTUS42 KTBW 260300 AAA
TAFTPA
TAF AMD
KTPA 260301Z 2603/2624 VRB06KT 6SM -RA BR SCT005 BKN070 OVC100
     FM260600 26011KT 5SM -RA BR BKN007 OVC020
     FM260900 32015G25KT 6SM -RA BR SCT007 BKN015 OVC030
     FM261300 34015G25KT P6SM -RA SCT020 OVC040
     FM261700 34011G18KT P6SM FEW020 BKN250=



000
FTUS42 KTBW 260100 AAA
TAFSRQ
TAF AMD
KSRQ 260139Z 2602/2624 19012G22KT 6SM -RA BR FEW012 SCT025 OVC070
      TEMPO 2602/2604 3SM TSRA BKN015CB
     FM260700 24011G18KT 5SM -RA BR BKN007 OVC020
     FM260900 30017G27KT 6SM -RA BR SCT007 BKN015 OVC030
     FM261300 34015G25KT P6SM -RA SCT020 OVC040
     FM262000 34011G18KT P6SM FEW020 BKN250=



000
FTUS42 KTBW 252300 RRA
TAFSRQ
TAF
KSRQ 252347Z 2600/2624 19007KT 5SM -RA BR VCTS BKN012 BKN025CB
      TEMPO 2600/2604 VRB15G25KT 2SM TSRA BKN004CB
     FM260700 24011G18KT 5SM -RA BR BKN007 OVC020
     FM260900 30017G27KT 6SM -RA BR SCT007 BKN015 OVC030
     FM261300 34015G25KT P6SM -RA SCT020 OVC040
     FM262000 34011G18KT P6SM FEW020 BKN250=



000
FTUS42 KTBW 252300 RRA
TAFFMY
TAF
KFMY 252347Z 2600/2624 19010KT P6SM VCSH SCT030 BKN060
     FM260800 24011G18KT 4SM -RA BR BKN007 OVC020
     FM261200 34015G24KT 6SM -RA BR SCT007 BKN015 OVC030
     FM261800 36011G18KT P6SM FEW020 BKN250=



000
FTUS42 KTBW 252300 RRA
TAFPIE
TAF
KPIE 252347Z 2600/2624 24007KT 5SM -RA BR VCTS SCT025CB BKN040
      TEMPO 2600/2604 2SM TSRA BKN008CB
     FM260600 26011KT 5SM -RA BR BKN007 OVC020
     FM260900 32017G27KT 6SM -RA BR SCT007 BKN015 OVC030
     FM261300 34015G25KT P6SM -RA SCT020 OVC040
     FM261700 34011G20KT P6SM FEW020 BKN250=



000
FTUS42 KTBW 252300 RRA
TAFRSW
TAF
KRSW 252347Z 2600/2624 19010KT P6SM VCSH SCT030 BKN060
     FM260800 22011G18KT 4SM -RA BR BKN007 OVC020
     FM261200 34014G23KT 6SM -RA BR SCT007 BKN015 OVC030
     FM261800 36011G18KT P6SM FEW020 BKN250=



000
FTUS42 KTBW 252300 RRA
TAFTPA
TAF
KTPA 252347Z 2600/2624 20007KT 5SM -RA BR VCTS BKN010 OVC025CB
      TEMPO 2600/2604 2SM TSRA BKN005CB
     FM260600 26011KT 5SM -RA BR BKN007 OVC020
     FM260900 32015G25KT 6SM -RA BR SCT007 BKN015 OVC030
     FM261300 34015G25KT P6SM -RA SCT020 OVC040
     FM261700 34011G18KT P6SM FEW020 BKN250=



000
FTUS42 KTBW 252100 AAB
TAFTPA
TAF AMD
KTPA 252102Z 2521/2618 18008KT 6SM -RA VCTS SCT010CB BKN015 OVC050
      TEMPO 2521/2523 VRB20G30KT 2SM +TSRA BKN010CB
     FM260000 20008KT 3SM -RA BR VCTS BKN007 OVC025CB
     FM260600 25010KT 4SM -RA BR BKN005 OVC020
     FM260900 29015G25KT 4SM -RA BR SCT005 BKN015 OVC040
     FM261300 34015G25KT P6SM -RA SCT015 OVC025=



000
FTUS42 KTBW 251900 CCA
TAFTPA
TAF COR
KTPA 251930Z 2520/2618 18010KT 5SM BR VCTS SCT005 BKN015 OVC035CB
      TEMPO 2520/2521 2SM +TSRA BKN005CB
     FM252100 18008KT 4SM -RA VCTS BKN005 OVC020CB
     FM260000 20008KT 3SM -RA BR VCTS BKN007 OVC025CB
     FM260600 25010KT 4SM -RA BR BKN005 OVC020
     FM260900 29015G25KT 4SM -RA BR SCT005 BKN015 OVC040
     FM261300 34015G25KT P6SM -RA SCT015 OVC025=



000
FTUS42 KTBW 251900 AAA
TAFTPA
TAF AMD
KTPA 251929Z 2519/2618 18010KT 5SM BR VCTS SCT005 BKN015 OVC035CB
      TEMPO 2519/2521 2SM +TSRA BKN015CB
     FM252100 18008KT 4SM -RA VCTS BKN005 OVC020CB
     FM260000 20008KT 3SM -RA BR VCTS BKN007 OVC025CB
     FM260600 25010KT 4SM -RA BR BKN005 OVC020
     FM260900 29015G25KT 4SM -RA BR SCT005 BKN015 OVC040
     FM261300 34015G25KT P6SM -RA SCT015 OVC025=



000
FTUS42 KTBW 251700 RRA
TAFRSW
TAF
KRSW 251750Z 2518/2618 19012KT P6SM VCSH SCT025 BKN035 OVC060
     FM252100 19014KT P6SM VCSH SCT005 OVC045
     FM260000 19009KT 6SM -RA VCTS SCT015CB OVC050
     FM260700 23012KT 5SM -RA BR OVC015
     FM261100 32015G25KT 4SM -RA BR SCT005 BKN015 OVC040
     FM261400 35015G25KT P6SM -RA SCT010 OVC060=



000
FTUS42 KTBW 251700 RRA
TAFTPA
TAF
KTPA 251750Z 2518/2618 18008KT 4SM -RA VCTS BKN005 OVC035CB
      TEMPO 2518/2521 1SM +TSRA BR
     FM252100 18008KT 4SM -RA VCTS BKN005 OVC020CB
     FM260000 20008KT 3SM -RA BR VCTS BKN007 OVC025CB
     FM260600 25010KT 4SM -RA BR BKN005 OVC020
     FM260900 29015G25KT 4SM -RA BR SCT005 BKN015 OVC040
     FM261300 34015G25KT P6SM -RA SCT015 OVC025=



000
FTUS42 KTBW 251700 RRA
TAFFMY
TAF
KFMY 251750Z 2518/2618 18012KT P6SM VCSH SCT025 BKN035 OVC060
     FM252100 19014KT P6SM VCSH SCT005 OVC045
     FM260000 19009KT 6SM -RA VCTS SCT015CB OVC050
     FM260700 23012KT 5SM -RA BR OVC015
     FM261100 32015G25KT 4SM -RA BR SCT005 BKN015 OVC040
     FM261400 35015G25KT P6SM -RA SCT010 OVC060=



000
FTUS42 KTBW 251700 RRA
TAFSRQ
TAF
KSRQ 251750Z 2518/2618 19012G22KT P6SM VCSH BKN008 OVC040
      TEMPO 2519/2522 1SM +TSRA BR BKN008CB
     FM252300 18012KT 3SM -RA BR VCTS BKN005 OVC045CB
     FM260700 21014KT 4SM -RA BR BKN006 OVC035
     FM261000 29017G27KT 4SM -RA BR SCT005 BKN015 OVC040
     FM261300 34015G25KT P6SM -RA SCT015 OVC025=



000
FTUS42 KTBW 251700 RRA
TAFPIE
TAF
KPIE 251750Z 2518/2618 18008KT 4SM -RA VCTS BKN005 OVC035CB
      TEMPO 2518/2521 1SM +TSRA BR
     FM252100 18009KT 4SM -RA VCTS BKN005 OVC020CB
     FM260000 19008KT 3SM -RA BR VCTS BKN007 OVC025CB
     FM260600 25012KT 4SM -RA BR BKN005 OVC020
     FM260900 30018G28KT 4SM -RA BR SCT005 BKN015 OVC040
     FM261300 34015G25KT P6SM -RA SCT015 OVC025=



000
FTUS42 KTBW 251500 AAB
TAFSRQ
TAF AMD
KSRQ 251506Z 2515/2612 18012KT 3SM BR VCSH BKN005 OVC015
      TEMPO 2515/2518 VRB15G25KT 2SM +TSRA BR SCT005 OVC015CB
     FM251800 18010KT 5SM -RA VCTS SCT005 BKN015CB OVC030
     FM260200 18010KT 5SM -RA VCTS SCT005 BKN015CB
     FM260700 28010G15KT 3SM SHRA BR SCT005 OVC015
     FM260900 31015G25KT 3SM SHRA SCT005 OVC015=



000
FTUS42 KTBW 251500 AAA
TAFPIE
TAF AMD
KPIE 251505Z 2515/2612 18010KT 3SM BR VCSH BKN004 OVC015
      TEMPO 2515/2518 VRB15G25KT 2SM +TSRA BR SCT004 OVC015CB
     FM251800 18009KT 5SM -RA VCTS SCT005 BKN015CB OVC030
     FM260200 18010KT 5SM -RA VCTS SCT005 BKN015CB
     FM260600 28008KT 3SM SHRA BR SCT005 OVC015
     FM260800 31015G25KT 3SM SHRA SCT005 OVC015=



000
FTUS42 KTBW 251400 AAA
TAFTPA
TAF AMD
KTPA 251459Z 2515/2612 18006KT 2SM BR VCSH BKN003 OVC015
      TEMPO 2515/2518 VRB15G25KT 2SM +TSRA BR SCT005 OVC015CB
     FM251800 18009KT 5SM -RA VCTS SCT005 BKN015CB OVC030
     FM260200 18010KT 5SM -RA VCTS SCT005 BKN015CB
     FM260600 28008KT 3SM SHRA BR SCT005 OVC015
     FM260800 31015G25KT 3SM SHRA SCT005 OVC015=



000
FTUS42 KTBW 251200 AAA
TAFSRQ
TAF AMD
KSRQ 251221Z 2512/2612 18008KT 2SM BR VCTS SCT003 BKN035CB
      TEMPO 2512/2514 1SM BR OVC003
     FM251400 16006KT 5SM -RA VCTS SCT005 OVC035CB
     FM260200 18010KT 5SM -RA VCTS SCT005 BKN015CB
     FM260700 28010G15KT 3SM SHRA BR SCT005 OVC015
     FM260900 31015G25KT 3SM SHRA SCT005 OVC015=



000
FTUS42 KTBW 251100 RRA
TAFFMY
TAF
KFMY 251148Z 2512/2612 16005KT 6SM BR VCTS SCT008 BKN035CB
      TEMPO 2512/2514 4SM SHRA BR BKN008 OVC035
     FM251400 17008KT P6SM VCTS FEW010 BKN035CB
     FM260400 18007KT 5SM -RA VCTS SCT005 BKN015CB
     FM260800 27010G15KT 3SM SHRA BR SCT005 OVC015
     FM261000 35015G25KT 3SM SHRA SCT005 OVC015=



000
FTUS42 KTBW 251100 RRA
TAFSRQ
TAF
KSRQ 251148Z 2512/2612 VRB03KT 6SM BR VCTS SCT005 BKN035CB
      TEMPO 2512/2514 VRB10G15KT 4SM TSRA BR SCT005 OVC025CB
     FM251400 16006KT 5SM -RA VCTS SCT005 OVC035CB
     FM260200 18010KT 5SM -RA VCTS SCT005 BKN015CB
     FM260700 28010G15KT 3SM SHRA BR SCT005 OVC015
     FM260900 31015G25KT 3SM SHRA SCT005 OVC015=



000
FTUS42 KTBW 251100 RRA
TAFRSW
TAF
KRSW 251148Z 2512/2612 16008KT 6SM BR VCTS SCT006 BKN035CB
      TEMPO 2512/2514 4SM SHRA BR BKN006 OVC035
     FM251400 17008KT P6SM VCTS FEW010 BKN035CB
     FM260400 18007KT 5SM -RA VCTS SCT005 BKN015CB
     FM260800 27010G15KT 3SM SHRA BR SCT005 OVC015
     FM261000 35015G25KT 3SM SHRA SCT005 OVC015=



000
FTUS42 KTBW 251100 RRA
TAFPIE
TAF
KPIE 251148Z 2512/2612 16006KT 6SM BR VCTS SCT005 BKN035CB
      TEMPO 2512/2514 2SM SHRA BR BKN005 OVC025
     FM251400 16006KT 5SM -RA VCTS SCT005 OVC035CB
     FM260200 18010KT 5SM -RA VCTS SCT005 BKN015CB
     FM260600 28008KT 3SM SHRA BR SCT005 OVC015
     FM260800 31015G25KT 3SM SHRA SCT005 OVC015=



000
FTUS42 KTBW 251100 RRA
TAFTPA
TAF
KTPA 251148Z 2512/2612 VRB03KT 6SM BR VCTS SCT005 BKN035CB
      TEMPO 2512/2514 4SM TSRA BR BKN005 OVC025CB
     FM251400 16006KT 5SM -RA VCTS SCT005 OVC035CB
     FM260200 18010KT 5SM -RA VCTS SCT005 BKN015CB
     FM260600 28008KT 3SM SHRA BR SCT005 OVC015
     FM260800 31015G25KT 3SM SHRA SCT005 OVC015=



000
FTUS42 KTBW 251100 AAA
TAFPIE
TAF AMD
KPIE 251108Z 2511/2606 18004KT 6SM BR SCT004
      TEMPO 2511/2513 3SM BR BKN004
     FM251500 18009KT 5SM SHRA VCTS SCT012CB BKN020
      TEMPO 2515/2519 3SM +TSRA BKN012CB
     FM260500 25007KT 3SM SHRA BR SCT005 OVC010=



000
FTUS42 KTBW 250900 AAA
TAFTPA
TAF AMD
KTPA 250900Z 2509/2606 16004KT 6SM BR VCSH FEW005 SCT100 BKN150
      TEMPO 2509/2513 3SM BR SCT005 BKN015
     FM251500 18009KT 5SM SHRA VCTS SCT012CB BKN020
      TEMPO 2515/2519 3SM +TSRA BKN012CB
     FM260500 25007KT 3SM SHRA BR SCT005 OVC010=



000
FTUS42 KTBW 250800 AAA
TAFSRQ
TAF AMD
KSRQ 250804Z 2508/2606 VRB04KT 6SM BR SCT007 BKN030
      TEMPO 2508/2512 3SM BR BKN007
     FM251500 18010KT 5SM SHRA VCTS SCT012CB BKN020
      TEMPO 2515/2519 3SM +TSRA BKN012CB=



000
FTUS42 KTBW 250800 AAA
TAFFMY
TAF AMD
KFMY 250803Z 2508/2606 17004KT 6SM BR VCSH BKN006
     FM251200 17004KT 6SM BR VCTS FEW005 SCT020CB BKN040
     FM251500 18010KT 6SM SHRA VCTS SCT015CB BKN035=



000
FTUS42 KTBW 250800 AAA
TAFRSW
TAF AMD
KRSW 250803Z 2508/2606 19004KT 6SM BR VCSH BKN005
     FM251200 17004KT 6SM BR VCTS FEW005 SCT020CB BKN040
     FM251500 18010KT 6SM SHRA VCTS SCT015CB BKN035=



000
FTUS42 KTBW 250500 RRA
TAFSRQ
TAF
KSRQ 250544Z 2506/2606 20004KT 6SM BR SCT005 BKN100
     FM250900 17004KT 5SM BR VCSH SCT005 BKN070
      TEMPO 2509/2513 3SM BR BKN005
     FM251500 18010KT 5SM SHRA VCTS SCT012CB BKN020
      TEMPO 2515/2519 3SM +TSRA BKN012CB=



000
FTUS42 KTBW 250500 RRA
TAFRSW
TAF
KRSW 250544Z 2506/2606 19004KT P6SM VCTS SCT020CB BKN040
     FM250900 17004KT 6SM BR VCTS FEW005 SCT020CB BKN040
     FM251500 18010KT 6SM SHRA VCTS SCT015CB BKN035=



000
FTUS42 KTBW 250500 RRA
TAFTPA
TAF
KTPA 250544Z 2506/2606 18004KT 6SM BR SCT005 BKN100
     FM250900 17004KT 6SM BR VCSH BKN005
     FM251500 18009KT 5SM SHRA VCTS SCT012CB BKN020
      TEMPO 2515/2519 3SM +TSRA BKN012CB
     FM260500 25007KT 3SM SHRA BR SCT005 OVC010=



000
FTUS42 KTBW 250500 RRA
TAFFMY
TAF
KFMY 250544Z 2506/2606 19004KT P6SM VCTS SCT020CB BKN040
     FM250900 17004KT 6SM BR VCTS FEW005 SCT020CB BKN040
     FM251500 18010KT 6SM SHRA VCTS SCT015CB BKN035=



000
FTUS42 KTBW 250500 RRA
TAFPIE
TAF
KPIE 250544Z 2506/2606 18004KT 6SM BR SCT003
      TEMPO 2506/2509 3SM BR SCT003 BKN012
     FM251500 18009KT 5SM SHRA VCTS SCT012CB BKN020
      TEMPO 2515/2519 3SM +TSRA BKN012CB
     FM260500 25007KT 3SM SHRA BR SCT005 OVC010=



000
FTUS42 KTBW 250300 AAB
TAFPIE
TAF AMD
KPIE 250310Z 2503/2524 19004KT 6SM BR BKN005 OVC012
      TEMPO 2503/2507 4SM BR SCT005 BKN012
     FM250700 18006KT 3SM BR OVC005
     FM251500 17006KT 4SM BR VCTS OVC015CB
     FM251800 18007KT 4SM SHRA VCTS SCT020CB BKN050=



000
FTUS42 KTBW 250200 AAB
TAFTPA
TAF AMD
KTPA 250259Z 2503/2524 19004KT 3SM BR BKN008
     FM251500 17006KT 4SM BR VCTS OVC015CB
     FM251800 18007KT 4SM SHRA VCTS SCT020CB BKN050=



    US Dept of Commerce
    National Oceanic and Atmospheric Administration
    National Weather Service
    1325 East West Highway
    Silver Spring, MD 20910
    Page Author: NWS Internet Services Team
Disclaimer
Information Quality
Credits
Glossary
Privacy Policy
Freedom of Information Act (FOIA)
About Us
Career Opportunities